Time;durP1;ratioP1;P1;durP2;ratioP2;P2;SDS_P1;SDS_P2;PMS_P1;PMS_P2;Temp;Humidity;BMP_temperature;BMP_pressure;BME280_temperature;BME280_humidity;BME280_pressure;Samples;Min_cycle;Max_cycle;Signal;HPM_P1;HPM_P2
2022/06/07 00:00:32;;;;;;;;;55.75;44.25;;;;;-146.59;100.00;59519.28;4939238;28;51187;-43
2022/06/07 00:03:27;;;;;;;;;57.50;46.00;;;;;-146.59;100.00;59519.28;4939277;28;51139;-42
2022/06/07 00:06:12;;;;;;;;;56.50;46.00;;;;;-146.59;100.00;59519.28;4939163;28;51785;-44
2022/06/07 00:08:58;;;;;;;;;57.75;46.00;;;;;-146.59;100.00;59519.28;4939061;28;51239;-44
2022/06/07 00:11:47;;;;;;;;;62.25;47.00;;;;;-146.59;100.00;59519.28;4939477;28;51080;-44
2022/06/07 00:14:57;;;;;;;;;62.00;47.50;;;;;-146.59;100.00;59519.28;4939058;28;51532;-44
2022/06/07 00:18:03;;;;;;;;;67.25;48.75;;;;;-146.59;100.00;59519.28;4938919;28;51073;-43
2022/06/07 00:20:51;;;;;;;;;60.75;48.75;;;;;-146.59;100.00;59519.28;4939013;28;51176;-43
2022/06/07 00:23:36;;;;;;;;;62.00;48.25;;;;;-146.59;100.00;59519.28;4971380;28;51147;-42
2022/06/07 00:26:25;;;;;;;;;61.75;48.50;;;;;-146.59;100.00;59519.28;4980067;28;51084;-44
2022/06/07 00:29:14;;;;;;;;;63.50;49.75;;;;;-146.59;100.00;59519.28;4979991;28;51182;-45
2022/06/07 00:32:09;;;;;;;;;65.25;52.50;;;;;-146.59;100.00;59519.28;4965309;28;51153;-45
2022/06/07 00:34:57;;;;;;;;;68.50;53.00;;;;;-146.59;100.00;59519.28;4979920;28;51132;-42
2022/06/07 00:37:46;;;;;;;;;71.25;56.00;;;;;-146.59;100.00;59519.28;4965472;28;51153;-42
2022/06/07 00:40:31;;;;;;;;;80.00;71.75;;;;;-146.59;100.00;59519.28;4979768;28;51447;-44
2022/06/07 00:43:16;;;;;;;;;95.75;85.25;;;;;-146.59;100.00;59519.28;4979868;28;51287;-44
2022/06/07 00:46:10;;;;;;;;;92.50;81.25;;;;;-146.59;100.00;59519.28;4979484;28;51082;-41
2022/06/07 00:49:16;;;;;;;;;82.50;74.75;;;;;-146.59;100.00;59519.28;4980349;28;50985;-40
2022/06/07 00:52:02;;;;;;;;;90.50;82.25;;;;;-146.59;100.00;59519.28;4979565;28;51503;-44
2022/06/07 00:54:47;;;;;;;;;79.50;72.25;;;;;-146.59;100.00;59519.28;4979705;28;51433;-42
2022/06/07 00:57:34;;;;;;;;;76.50;68.00;;;;;-146.59;100.00;59519.28;4979605;28;51137;-43
2022/06/07 01:00:47;;;;;;;;;80.50;71.75;;;;;-146.59;100.00;59519.28;4978924;28;51105;-46
2022/06/07 01:03:32;;;;;;;;;77.25;68.75;;;;;-146.59;100.00;59519.28;4979746;28;51193;-43
2022/06/07 01:12:46;;;;;;;;;75.25;63.75;;;;;-146.59;100.00;59519.28;4979091;28;51045;-43
2022/06/07 01:15:32;;;;;;;;;73.75;60.25;;;;;-146.59;100.00;59519.28;4979727;28;51113;-44
2022/06/07 01:18:16;;;;;;;;;79.50;66.50;;;;;-146.59;100.00;59519.28;4979391;28;51123;-42
2022/06/07 01:21:35;;;;;;;;;77.00;66.50;;;;;-146.59;100.00;59519.28;4979534;28;51160;-43
2022/06/07 01:27:14;;;;;;;;;73.50;59.75;;;;;-146.59;100.00;59519.28;4977038;28;51131;-42
2022/06/07 01:30:02;;;;;;;;;77.00;66.00;;;;;-146.59;100.00;59519.28;4977250;28;51176;-42
2022/06/07 01:32:48;;;;;;;;;78.25;69.00;;;;;-146.59;100.00;59519.28;4963195;28;51115;-41
2022/06/07 01:35:36;;;;;;;;;77.00;68.75;;;;;-146.59;100.00;59519.28;4977221;28;51121;-43
2022/06/07 01:38:36;;;;;;;;;76.75;66.25;;;;;-146.59;100.00;59519.28;4976643;28;51109;-41
2022/06/07 01:44:56;;;;;;;;;79.00;70.00;;;;;-146.59;100.00;59519.28;4976777;28;51140;-43
2022/06/07 01:47:54;;;;;;;;;78.75;72.25;;;;;-146.59;100.00;59519.28;4977255;28;51324;-43
2022/06/07 01:50:44;;;;;;;;;93.00;85.00;;;;;-146.59;100.00;59519.28;4977108;28;51159;-43
2022/06/07 01:53:29;;;;;;;;;90.00;85.00;;;;;-146.59;100.00;59519.28;4976970;28;51108;-46
2022/06/07 01:56:17;;;;;;;;;95.25;86.25;;;;;-146.59;100.00;59519.28;4977116;28;51126;-44
2022/06/07 01:59:03;;;;;;;;;97.75;87.25;;;;;-146.59;100.00;59519.28;4976392;28;51659;-45
2022/06/07 02:01:55;;;;;;;;;97.50;89.50;;;;;-146.59;100.00;59519.28;4977018;28;51402;-44
2022/06/07 02:04:44;;;;;;;;;100.50;90.25;;;;;-146.59;100.00;59519.28;4978016;28;51094;-41
2022/06/07 02:07:34;;;;;;;;;99.25;91.25;;;;;-146.59;100.00;59519.28;4964702;28;51205;-42
2022/06/07 02:10:20;;;;;;;;;94.50;86.00;;;;;-146.59;100.00;59519.28;4979018;28;51028;-45
2022/06/07 02:13:07;;;;;;;;;88.00;81.00;;;;;-146.59;100.00;59519.28;4981169;28;51502;-41
2022/06/07 02:15:56;;;;;;;;;85.25;74.75;;;;;-146.59;100.00;59519.28;4982558;28;51504;-45
2022/06/07 02:18:46;;;;;;;;;75.00;65.00;;;;;-146.59;100.00;59519.28;4982401;28;51191;-44
2022/06/07 02:21:34;;;;;;;;;76.50;69.25;;;;;-146.59;100.00;59519.28;4982746;28;51104;-42
2022/06/07 02:24:19;;;;;;;;;65.25;50.75;;;;;-146.59;100.00;59519.28;4981964;28;51111;-43
2022/06/07 02:27:09;;;;;;;;;77.50;67.00;;;;;-146.59;100.00;59519.28;4982499;28;51219;-43
2022/06/07 02:29:55;;;;;;;;;73.00;63.00;;;;;-146.59;100.00;59519.28;4982089;28;51089;-43
2022/06/07 02:32:39;;;;;;;;;71.75;61.50;;;;;-146.59;100.00;59519.28;4982392;28;51104;-45
2022/06/07 02:35:26;;;;;;;;;76.25;65.50;;;;;-146.59;100.00;59519.28;4967082;28;51686;-43
2022/06/07 02:38:30;;;;;;;;;74.75;62.25;;;;;-146.59;100.00;59519.28;4982182;28;51007;-44
2022/06/07 02:41:20;;;;;;;;;69.50;54.75;;;;;-146.59;100.00;59519.28;4982107;28;51238;-42
2022/06/07 02:44:09;;;;;;;;;70.00;54.50;;;;;-146.59;100.00;59519.28;4967360;28;51180;-42
2022/06/07 02:46:54;;;;;;;;;71.50;57.50;;;;;-146.59;100.00;59519.28;4981976;28;51141;-44
2022/06/07 02:49:42;;;;;;;;;70.25;54.50;;;;;-146.59;100.00;59519.28;4981848;28;51573;-45
2022/06/07 02:52:47;;;;;;;;;69.50;56.00;;;;;-146.59;100.00;59519.28;4981888;28;51187;-42
2022/06/07 02:55:38;;;;;;;;;66.75;53.00;;;;;-146.59;100.00;59519.28;4981695;28;51214;-44
2022/06/07 02:58:25;;;;;;;;;68.25;54.50;;;;;-146.59;100.00;59519.28;4981391;28;51116;-44
2022/06/07 03:01:12;;;;;;;;;70.25;53.75;;;;;-146.59;100.00;59519.28;4981476;28;51560;-42
2022/06/07 03:04:00;;;;;;;;;66.50;51.50;;;;;-146.59;100.00;59519.28;4981660;28;51108;-42
2022/06/07 03:06:46;;;;;;;;;66.75;53.50;;;;;-146.59;100.00;59519.28;4981575;28;51147;-45
2022/06/07 03:09:33;;;;;;;;;61.75;49.50;;;;;-146.59;100.00;59519.28;4981419;28;51104;-43
2022/06/07 03:12:23;;;;;;;;;63.25;50.00;;;;;-146.59;100.00;59519.28;4981574;28;51066;-41
2022/06/07 03:15:12;;;;;;;;;64.00;50.75;;;;;-146.59;100.00;59519.28;4981296;28;51183;-44
2022/06/07 03:17:57;;;;;;;;;63.50;50.00;;;;;-146.59;100.00;59519.28;4981237;28;51697;-46
2022/06/07 03:20:43;;;;;;;;;63.50;49.75;;;;;-146.59;100.00;59519.28;4980802;28;51024;-44
2022/06/07 03:23:31;;;;;;;;;58.50;46.25;;;;;-146.59;100.00;59519.28;4966742;28;51141;-45
2022/06/07 03:26:17;;;;;;;;;62.00;50.75;;;;;-146.59;100.00;59519.28;4981193;28;51231;-43
2022/06/07 03:29:05;;;;;;;;;56.50;46.75;;;;;-146.59;100.00;59519.28;4981140;28;51159;-44
2022/06/07 03:32:06;;;;;;;;;64.50;50.00;;;;;-146.59;100.00;59519.28;4981175;28;51160;-44
2022/06/07 03:34:55;;;;;;;;;61.75;48.25;;;;;-146.59;100.00;59519.28;4980658;28;51135;-43
2022/06/07 03:37:41;;;;;;;;;61.25;48.25;;;;;-146.59;100.00;59519.28;4981426;28;51217;-45
2022/06/07 03:40:45;;;;;;;;;59.75;46.25;;;;;-146.59;100.00;59519.28;4980942;28;51145;-43
2022/06/07 03:43:33;;;;;;;;;61.25;48.00;;;;;-146.59;100.00;59519.28;4981080;28;51596;-43
2022/06/07 03:46:27;;;;;;;;;61.00;46.75;;;;;-146.59;100.00;59519.28;4966068;28;51175;-42
2022/06/07 03:49:19;;;;;;;;;60.00;46.75;;;;;-146.59;100.00;59519.28;4980964;28;51301;-43
2022/06/07 03:52:10;;;;;;;;;56.50;46.00;;;;;-146.59;100.00;59519.28;4966379;28;51546;-44
2022/06/07 03:54:59;;;;;;;;;56.75;45.00;;;;;-146.59;100.00;59519.28;4980848;28;51164;-42
2022/06/07 03:57:55;;;;;;;;;57.75;45.25;;;;;-146.59;100.00;59519.28;4975274;28;51177;-44
2022/06/07 04:00:43;;;;;;;;;56.75;44.25;;;;;-146.59;100.00;59519.28;4980640;28;51201;-44
2022/06/07 04:03:30;;;;;;;;;51.50;43.50;;;;;-146.59;100.00;59519.28;4966398;28;51121;-42
2022/06/07 04:06:37;;;;;;;;;57.00;45.50;;;;;-146.59;100.00;59519.28;4980264;28;51202;-44
2022/06/07 04:09:32;;;;;;;;;53.50;44.25;;;;;-146.59;100.00;59519.28;4980660;28;51678;-41
2022/06/07 04:12:20;;;;;;;;;58.00;46.00;;;;;-146.59;100.00;59519.28;4980255;28;51118;-42
2022/06/07 04:15:05;;;;;;;;;59.50;46.50;;;;;-146.59;100.00;59519.28;4980601;28;51065;-46
2022/06/07 04:17:53;;;;;;;;;54.50;44.25;;;;;-146.59;100.00;59519.28;4980131;28;51019;-45
2022/06/07 04:20:41;;;;;;;;;58.75;45.75;;;;;-146.59;100.00;59519.28;4980217;28;51068;-43
2022/06/07 04:23:28;;;;;;;;;56.75;45.25;;;;;-146.59;100.00;59519.28;4980114;28;51490;-42
2022/06/07 04:26:38;;;;;;;;;53.00;44.00;;;;;-146.59;100.00;59519.28;4980224;28;51468;-43
2022/06/07 04:29:28;;;;;;;;;55.75;44.50;;;;;-146.59;100.00;59519.28;4980209;28;51187;-44
2022/06/07 04:32:16;;;;;;;;;57.00;42.75;;;;;-146.59;100.00;59519.28;4977268;28;51624;-43
2022/06/07 04:35:01;;;;;;;;;55.25;44.25;;;;;-146.59;100.00;59519.28;4979289;28;51705;-42
2022/06/07 04:37:46;;;;;;;;;54.75;43.50;;;;;-146.59;100.00;59519.28;4979439;28;51172;-43
2022/06/07 04:40:36;;;;;;;;;52.50;42.00;;;;;-146.59;100.00;59519.28;4979738;28;51124;-42
2022/06/07 04:43:34;;;;;;;;;56.75;45.25;;;;;-146.59;100.00;59519.28;4979883;28;51407;-44
2022/06/07 04:46:24;;;;;;;;;55.75;44.25;;;;;-146.59;100.00;59519.28;4979915;28;51235;-42
2022/06/07 04:49:12;;;;;;;;;52.25;41.50;;;;;-146.59;100.00;59519.28;4965429;28;51104;-46
2022/06/07 04:51:59;;;;;;;;;47.25;37.75;;;;;-146.59;100.00;59519.28;4977163;28;51182;-45
2022/06/07 04:54:47;;;;;;;;;55.75;43.00;;;;;-146.59;100.00;59519.28;4979713;28;51142;-44
2022/06/07 04:57:35;;;;;;;;;58.00;45.00;;;;;-146.59;100.00;59519.28;4979428;28;51109;-43
2022/06/07 05:00:21;;;;;;;;;58.50;44.75;;;;;-146.59;100.00;59519.28;4979880;28;51172;-42
2022/06/07 05:03:14;;;;;;;;;61.00;47.00;;;;;-146.59;100.00;59519.28;4979653;28;52940;-43
2022/06/07 05:06:16;;;;;;;;;58.25;46.50;;;;;-146.59;100.00;59519.28;4979624;28;51092;-43
2022/06/07 05:09:29;;;;;;;;;64.00;50.75;;;;;-146.59;100.00;59519.28;4979277;28;51493;-43
2022/06/07 05:12:41;;;;;;;;;61.75;49.25;;;;;-146.59;100.00;59519.28;4979312;28;51231;-41
2022/06/07 05:15:38;;;;;;;;;64.75;50.00;;;;;-146.59;100.00;59519.28;4979684;28;51588;-43
2022/06/07 05:18:22;;;;;;;;;63.75;49.00;;;;;-146.59;100.00;59519.28;4979103;28;51116;-41
2022/06/07 05:21:09;;;;;;;;;62.25;50.00;;;;;-146.59;100.00;59519.28;4979584;28;51113;-44
2022/06/07 05:23:55;;;;;;;;;59.50;47.00;;;;;-146.59;100.00;59519.28;4979404;28;51164;-47
2022/06/07 05:26:49;;;;;;;;;62.25;50.25;;;;;-146.59;100.00;59519.28;4979789;28;51618;-42
2022/06/07 05:29:55;;;;;;;;;63.25;49.00;;;;;-146.59;100.00;59519.28;4964337;28;51376;-43
2022/06/07 05:32:47;;;;;;;;;60.25;48.25;;;;;-146.59;100.00;59519.28;4979865;28;51441;-41
2022/06/07 05:35:34;;;;;;;;;62.25;49.25;;;;;-146.59;100.00;59519.28;4965019;28;51118;-43
2022/06/07 05:38:24;;;;;;;;;56.00;45.25;;;;;-146.59;100.00;59519.28;4979141;28;51181;-46
2022/06/07 05:41:29;;;;;;;;;56.50;45.00;;;;;-146.59;100.00;59519.28;4979517;28;51617;-42
2022/06/07 05:44:22;;;;;;;;;55.50;45.25;;;;;-146.59;100.00;59519.28;4979363;28;51072;-42
2022/06/07 05:47:12;;;;;;;;;52.50;43.50;;;;;-146.59;100.00;59519.28;4981801;28;51083;-49
2022/06/07 05:49:57;;;;;;;;;55.50;43.50;;;;;-146.59;100.00;59519.28;4977437;28;51100;-52
2022/06/07 05:52:42;;;;;;;;;52.75;41.75;;;;;-146.59;100.00;59519.28;4981773;28;53027;-52
2022/06/07 05:55:29;;;;;;;;;52.25;43.50;;;;;-146.59;100.00;59519.28;4982607;28;51120;-53
2022/06/07 05:58:16;;;;;;;;;50.00;40.00;;;;;-146.59;100.00;59519.28;4983004;28;51054;-52
2022/06/07 06:01:09;;;;;;;;;53.00;44.00;;;;;-146.59;100.00;59519.28;4982920;28;51339;-51
2022/06/07 06:04:03;;;;;;;;;53.25;42.50;;;;;-146.59;100.00;59519.28;4982577;28;51243;-52
2022/06/07 06:07:01;;;;;;;;;51.00;42.25;;;;;-146.59;100.00;59519.28;4982338;28;51087;-50
2022/06/07 06:10:20;;;;;;;;;59.00;44.25;;;;;-146.59;100.00;59519.28;4975821;28;51095;-49
2022/06/07 06:13:24;;;;;;;;;56.50;45.50;;;;;-146.59;100.00;59519.28;4982999;28;51245;-50
2022/06/07 06:16:15;;;;;;;;;54.75;45.25;;;;;-146.59;100.00;59519.28;4982434;28;51036;-49
2022/06/07 06:19:01;;;;;;;;;61.25;47.00;;;;;-146.59;100.00;59519.28;4953592;28;51121;-51
2022/06/07 06:22:18;;;;;;;;;61.25;46.50;;;;;-146.59;100.00;59519.28;4980015;28;51207;-52
2022/06/07 06:25:08;;;;;;;;;61.00;47.00;;;;;-146.59;100.00;59519.28;4981883;28;51514;-52
2022/06/07 06:27:56;;;;;;;;;57.00;45.25;;;;;-146.59;100.00;59519.28;4980505;28;51480;-52
2022/06/07 06:30:44;;;;;;;;;55.00;44.00;;;;;-146.59;100.00;59519.28;4982060;28;51043;-52
2022/06/07 06:33:37;;;;;;;;;57.50;45.50;;;;;-146.59;100.00;59519.28;4982349;28;51226;-53
2022/06/07 06:36:34;;;;;;;;;59.25;48.50;;;;;-146.59;100.00;59519.28;4981733;28;51141;-52
2022/06/07 06:39:27;;;;;;;;;57.00;44.00;;;;;-146.59;100.00;59519.28;4981839;28;51145;-50
2022/06/07 06:42:14;;;;;;;;;56.25;45.00;;;;;-146.59;100.00;59519.28;4981778;28;51070;-51
2022/06/07 06:45:11;;;;;;;;;56.50;44.25;;;;;-146.59;100.00;59519.28;4981752;28;51692;-53
2022/06/07 06:48:04;;;;;;;;;59.00;46.00;;;;;-146.59;100.00;59519.28;4981441;28;51199;-49
2022/06/07 06:50:58;;;;;;;;;60.50;47.50;;;;;-146.59;100.00;59519.28;4982094;28;51165;-52
2022/06/07 06:53:46;;;;;;;;;69.00;52.00;;;;;-146.59;100.00;59519.28;4981688;28;51454;-53
2022/06/07 06:56:33;;;;;;;;;63.00;50.25;;;;;-146.59;100.00;59519.28;4981674;28;51216;-51
2022/06/07 06:59:27;;;;;;;;;63.50;50.25;;;;;-146.59;100.00;59519.28;4980644;28;51084;-51
2022/06/07 07:02:13;;;;;;;;;68.00;54.75;;;;;-146.59;100.00;59519.28;4976337;28;51085;-50
2022/06/07 07:04:57;;;;;;;;;68.25;52.75;;;;;-146.59;100.00;59519.28;4966704;28;51067;-50
2022/06/07 07:07:43;;;;;;;;;66.75;52.75;;;;;-146.59;100.00;59519.28;4978930;28;51078;-52
2022/06/07 07:10:27;;;;;;;;;67.00;52.50;;;;;-146.59;100.00;59519.28;4983718;28;51242;-50
2022/06/07 07:13:13;;;;;;;;;67.50;53.50;;;;;-146.59;100.00;59519.28;4976291;28;51209;-53
2022/06/07 07:16:00;;;;;;;;;64.25;51.00;;;;;-146.59;100.00;59519.28;4981371;28;51178;-49
2022/06/07 07:18:55;;;;;;;;;65.75;50.50;;;;;-146.59;100.00;59519.28;4980514;28;51077;-51
2022/06/07 07:21:45;;;;;;;;;65.25;51.50;;;;;-146.59;100.00;59519.28;4980908;28;51175;-52
2022/06/07 07:24:46;;;;;;;;;62.25;49.25;;;;;-146.59;100.00;59519.28;4967090;28;51654;-51
2022/06/07 07:27:31;;;;;;;;;63.50;49.50;;;;;-146.59;100.00;59519.28;4981008;28;51119;-51
2022/06/07 07:30:16;;;;;;;;;64.75;51.25;;;;;-146.59;100.00;59519.28;4981205;28;51143;-53
2022/06/07 07:33:01;;;;;;;;;62.75;49.75;;;;;-146.59;100.00;59519.28;4980806;28;51049;-52
2022/06/07 07:35:45;;;;;;;;;65.75;50.75;;;;;-146.59;100.00;59519.28;4981104;28;51661;-52
2022/06/07 07:38:36;;;;;;;;;67.00;50.00;;;;;-146.59;100.00;59519.28;4980593;28;51353;-53
2022/06/07 07:41:33;;;;;;;;;65.50;50.25;;;;;-146.59;100.00;59519.28;4967431;28;51162;-52
2022/06/07 07:44:48;;;;;;;;;58.50;46.25;;;;;-146.59;100.00;59519.28;4980004;28;51520;-52
2022/06/07 07:47:35;;;;;;;;;61.00;48.00;;;;;-146.59;100.00;59519.28;4969968;28;51158;-53
2022/06/07 07:50:21;;;;;;;;;59.00;46.75;;;;;-146.59;100.00;59519.28;4980995;28;51090;-51
2022/06/07 07:53:07;;;;;;;;;58.75;46.50;;;;;-146.59;100.00;59519.28;4980249;28;51198;-53
2022/06/07 07:55:53;;;;;;;;;56.50;44.00;;;;;-146.59;100.00;59519.28;4980940;28;51150;-52
2022/06/07 07:58:42;;;;;;;;;58.50;45.75;;;;;-146.59;100.00;59519.28;4980293;28;51153;-52
2022/06/07 08:01:54;;;;;;;;;54.00;44.50;;;;;-146.59;100.00;59519.28;4979845;28;51131;-51
2022/06/07 08:04:49;;;;;;;;;57.00;42.50;;;;;-146.59;100.00;59519.28;4975635;28;51017;-53
2022/06/07 08:07:59;;;;;;;;;58.75;45.00;;;;;-146.59;100.00;59519.28;4947082;28;51167;-51
2022/06/07 08:10:44;;;;;;;;;55.25;45.50;;;;;-146.59;100.00;59519.28;4958405;28;51541;-53
2022/06/07 08:13:34;;;;;;;;;53.75;41.75;;;;;-146.59;100.00;59519.28;4958165;28;51191;-48
2022/06/07 08:16:24;;;;;;;;;48.75;40.00;;;;;-146.59;100.00;59519.28;4951679;28;51674;-52
2022/06/07 08:19:09;;;;;;;;;44.00;38.00;;;;;-146.59;100.00;59519.28;4942231;28;51171;-52
2022/06/07 08:21:59;;;;;;;;;49.25;39.00;;;;;-146.59;100.00;59519.28;4939301;28;51116;-52
2022/06/07 08:24:46;;;;;;;;;49.50;39.00;;;;;-146.59;100.00;59519.28;4938581;28;51967;-51
2022/06/07 08:27:30;;;;;;;;;54.00;41.00;;;;;-146.59;100.00;59519.28;4939015;28;51647;-50
2022/06/07 08:30:20;;;;;;;;;53.00;41.75;;;;;-146.59;100.00;59519.28;4938590;28;51275;-52
2022/06/07 08:39:08;;;;;;;;;49.00;38.75;;;;;-146.59;100.00;59519.28;4917489;28;51214;-51
2022/06/07 08:42:07;;;;;;;;;48.25;39.50;;;;;-146.59;100.00;59519.28;4942822;28;51570;-52
2022/06/07 08:44:58;;;;;;;;;49.75;41.00;;;;;-146.59;100.00;59519.28;4957837;28;51190;-50
2022/06/07 08:48:09;;;;;;;;;49.50;40.50;;;;;-146.59;100.00;59519.28;4957736;28;51107;-53
2022/06/07 08:51:22;;;;;;;;;50.25;40.75;;;;;-146.59;100.00;59519.28;4936203;28;51299;-51
2022/06/07 08:54:22;;;;;;;;;52.25;42.00;;;;;-146.59;100.00;59519.28;4910343;28;51209;-51
2022/06/07 08:57:22;;;;;;;;;52.25;43.00;;;;;-146.59;100.00;59519.28;4924333;28;51182;-50
2022/06/07 09:00:39;;;;;;;;;53.25;42.25;;;;;-146.59;100.00;59519.28;4936561;28;51178;-51
2022/06/07 09:03:53;;;;;;;;;44.00;36.50;;;;;-146.59;100.00;59519.28;4939429;28;51182;-51
2022/06/07 09:06:44;;;;;;;;;49.00;39.50;;;;;-146.59;100.00;59519.28;4938092;28;51181;-52
2022/06/07 09:12:43;;;;;;;;;56.25;43.50;;;;;-146.59;100.00;59519.28;4940969;28;51264;-50
2022/06/07 09:15:32;;;;;;;;;50.25;39.50;;;;;-146.59;100.00;59519.28;4948841;28;51595;-50
2022/06/07 09:18:25;;;;;;;;;45.75;31.75;;;;;-146.59;100.00;59519.28;4976896;28;51159;-50
2022/06/07 09:21:46;;;;;;;;;43.50;34.00;;;;;-146.59;100.00;59519.28;4942027;28;51556;-53
2022/06/07 09:24:49;;;;;;;;;37.50;32.50;;;;;-146.59;100.00;59519.28;4981612;28;51123;-51
2022/06/07 09:27:34;;;;;;;;;36.00;31.50;;;;;-146.59;100.00;59519.28;5003243;28;51079;-49
2022/06/07 09:30:26;;;;;;;;;47.50;35.25;;;;;-146.59;100.00;59519.28;4979430;28;51113;-48
2022/06/07 09:33:24;;;;;;;;;43.50;35.50;;;;;-146.59;100.00;59519.28;4980971;28;51195;-49
2022/06/07 09:36:25;;;;;;;;;39.75;32.00;;;;;-146.59;100.00;59519.28;4981650;28;51786;-52
2022/06/07 09:39:41;;;;;;;;;33.75;31.50;;;;;-146.59;100.00;59519.28;4980386;28;51196;-53
2022/06/07 09:42:30;;;;;;;;;30.25;28.25;;;;;-146.59;100.00;59519.28;4979347;28;51306;-52
2022/06/07 09:45:23;;;;;;;;;38.25;31.50;;;;;-146.59;100.00;59519.28;4978906;28;51143;-52
2022/06/07 09:48:32;;;;;;;;;35.25;29.75;;;;;-146.59;100.00;59519.28;4979051;28;51527;-51
2022/06/07 09:51:40;;;;;;;;;33.50;29.50;;;;;-146.59;100.00;59519.28;4982779;28;51126;-52
2022/06/07 09:54:25;;;;;;;;;36.25;29.00;;;;;-146.59;100.00;59519.28;4977620;28;51065;-54
2022/06/07 09:57:36;;;;;;;;;31.25;28.50;;;;;-146.59;100.00;59519.28;4982939;28;51429;-54
2022/06/07 10:00:44;;;;;;;;;30.25;27.00;;;;;-146.59;100.00;59519.28;4982439;28;51207;-51
2022/06/07 10:03:38;;;;;;;;;33.25;30.75;;;;;-146.59;100.00;59519.28;4973270;28;51139;-48
2022/06/07 10:06:39;;;;;;;;;36.75;32.00;;;;;-146.59;100.00;59519.28;4983191;28;51502;-49
2022/06/07 10:09:35;;;;;;;;;33.00;30.00;;;;;-146.59;100.00;59519.28;4982831;28;51021;-52
2022/06/07 10:12:39;;;;;;;;;26.75;25.50;;;;;-146.59;100.00;59519.28;4982951;28;51531;-53
2022/06/07 10:15:33;;;;;;;;;29.75;25.75;;;;;-146.59;100.00;59519.28;4961729;28;51663;-52
2022/06/07 10:18:39;;;;;;;;;32.25;27.75;;;;;-146.59;100.00;59519.28;4974085;28;51131;-52
2022/06/07 10:21:30;;;;;;;;;25.25;23.50;;;;;-146.59;100.00;59519.28;4982535;28;51072;-50
2022/06/07 10:24:53;;;;;;;;;25.25;21.75;;;;;-146.59;100.00;59519.28;4982051;28;51128;-53
2022/06/07 10:28:18;;;;;;;;;26.75;26.00;;;;;-146.59;100.00;59519.28;4980735;28;51211;-50
2022/06/07 10:31:11;;;;;;;;;25.75;24.00;;;;;-146.59;100.00;59519.28;4953419;28;51100;-52
2022/06/07 10:33:59;;;;;;;;;29.50;26.00;;;;;-146.59;100.00;59519.28;4980110;28;51112;-52
2022/06/07 10:36:52;;;;;;;;;25.25;24.50;;;;;-146.59;100.00;59519.28;4982075;28;51211;-54
2022/06/07 10:40:04;;;;;;;;;27.00;25.00;;;;;-146.59;100.00;59519.28;4982135;28;51104;-52
2022/06/07 10:43:16;;;;;;;;;20.25;17.25;;;;;-146.59;100.00;59519.28;4982090;28;51465;-52
2022/06/07 10:46:01;;;;;;;;;26.50;23.25;;;;;-146.59;100.00;59519.28;4981599;28;51264;-50
2022/06/07 10:49:12;;;;;;;;;23.75;22.75;;;;;-146.59;100.00;59519.28;4981094;28;51307;-52
2022/06/07 10:52:22;;;;;;;;;36.50;26.25;;;;;-146.59;100.00;59519.28;4980667;28;51069;-51
2022/06/07 10:55:09;;;;;;;;;27.75;24.50;;;;;-146.59;100.00;59519.28;4965432;28;51181;-52
2022/06/07 10:58:13;;;;;;;;;28.50;24.25;;;;;-146.59;100.00;59519.28;4980832;28;51198;-51
2022/06/07 11:00:59;;;;;;;;;29.00;23.25;;;;;-146.59;100.00;59519.28;4961120;28;51209;-52
2022/06/07 11:10:48;;;;;;;;;27.25;24.00;;;;;-146.59;100.00;59519.28;4872145;29;51640;-50
2022/06/07 11:13:35;;;;;;;;;23.75;22.50;;;;;-146.59;100.00;59519.28;4883183;29;51100;-52
2022/06/07 11:16:19;;;;;;;;;27.00;24.50;;;;;-146.59;100.00;59519.28;4873570;28;51067;-52
2022/06/07 11:19:04;;;;;;;;;23.25;22.75;;;;;-146.59;100.00;59519.28;4901303;28;51495;-52
2022/06/07 11:21:55;;;;;;;;;23.25;22.00;;;;;-146.59;100.00;59519.28;4901846;28;51216;-52
2022/06/07 11:25:01;;;;;;;;;25.75;24.00;;;;;-146.59;100.00;59519.28;4888517;28;51654;-51
2022/06/07 11:28:11;;;;;;;;;23.75;22.00;;;;;-146.59;100.00;59519.28;4901821;28;51153;-52
2022/06/07 11:31:33;;;;;;;;;20.00;19.25;;;;;-146.59;100.00;59519.28;4901745;28;51227;-49
2022/06/07 11:34:31;;;;;;;;;21.25;21.25;;;;;-146.59;100.00;59519.28;4901969;28;51299;-49
2022/06/07 11:37:21;;;;;;;;;24.25;22.75;;;;;-146.59;100.00;59519.28;4901367;28;51519;-51
2022/06/07 11:41:36;;;;;;;;;27.00;21.50;;;;;-146.59;100.00;59519.28;4907637;28;51153;-52
2022/06/07 11:44:00;;;;;;;;;21.25;20.25;;;;;-146.59;100.00;59519.28;4980936;28;51058;-51
2022/06/07 11:47:19;;;;;;;;;21.25;19.25;;;;;-146.59;100.00;59519.28;4970204;28;51161;-54
2022/06/07 11:50:12;;;;;;;;;25.00;19.75;;;;;-146.59;100.00;59519.28;4975336;28;51265;-52
2022/06/07 11:53:14;;;;;;;;;24.25;19.25;;;;;-146.59;100.00;59519.28;4971632;28;51210;-52
2022/06/07 11:56:20;;;;;;;;;25.25;24.00;;;;;-146.59;100.00;59519.28;4981050;28;51204;-49
2022/06/07 11:59:22;;;;;;;;;26.50;23.00;;;;;-146.59;100.00;59519.28;4977515;28;51042;-50
2022/06/07 12:02:29;;;;;;;;;32.75;24.25;;;;;-146.59;100.00;59519.28;4980444;28;51042;-49
2022/06/07 12:05:36;;;;;;;;;27.50;22.75;;;;;-146.59;100.00;59519.28;4980445;28;51126;-49
2022/06/07 12:08:29;;;;;;;;;24.75;24.75;;;;;-146.59;100.00;59519.28;4980247;28;51029;-51
2022/06/07 12:11:23;;;;;;;;;22.75;22.50;;;;;-146.59;100.00;59519.28;4965153;28;51277;-51
2022/06/07 12:14:27;;;;;;;;;26.50;22.75;;;;;-146.59;100.00;59519.28;4964915;28;51148;-48
2022/06/07 12:17:42;;;;;;;;;25.25;24.50;;;;;-146.59;100.00;59519.28;4980612;28;51133;-51
2022/06/07 12:20:45;;;;;;;;;27.00;24.50;;;;;-146.59;100.00;59519.28;4965906;28;51146;-51
2022/06/07 12:23:38;;;;;;;;;27.00;23.25;;;;;-146.59;100.00;59519.28;4979687;28;51137;-51
2022/06/07 12:26:36;;;;;;;;;31.50;27.75;;;;;-146.59;100.00;59519.28;4951347;28;51177;-50
2022/06/07 12:29:29;;;;;;;;;20.50;19.25;;;;;-146.59;100.00;59519.28;4980020;28;51078;-53
2022/06/07 12:32:29;;;;;;;;;20.50;19.25;;;;;-146.59;100.00;59519.28;4979655;28;51220;-52
2022/06/07 12:35:21;;;;;;;;;27.00;24.00;;;;;-146.59;100.00;59519.28;4964723;28;51063;-49
2022/06/07 12:38:16;;;;;;;;;26.25;19.75;;;;;-146.59;100.00;59519.28;4965449;28;51071;-49
2022/06/07 12:41:04;;;;;;;;;24.50;23.50;;;;;-146.59;100.00;59519.28;4977359;28;51161;-50
2022/06/07 12:43:59;;;;;;;;;28.25;21.25;;;;;-146.59;100.00;59519.28;4975983;28;51136;-49
2022/06/07 12:46:54;;;;;;;;;20.50;20.50;;;;;-146.59;100.00;59519.28;4979820;28;51197;-51
2022/06/07 12:49:52;;;;;;;;;26.25;25.75;;;;;-146.59;100.00;59519.28;4980032;28;51108;-50
2022/06/07 12:52:37;;;;;;;;;20.75;20.00;;;;;-146.59;100.00;59519.28;4979680;28;51097;-49
2022/06/07 12:55:25;;;;;;;;;22.00;21.00;;;;;-146.59;100.00;59519.28;4979103;28;51204;-52
2022/06/07 12:58:55;;;;;;;;;27.25;23.00;;;;;-146.59;100.00;59519.28;4979683;28;51504;-53
2022/06/07 13:01:53;;;;;;;;;26.25;23.50;;;;;-146.59;100.00;59519.28;4959805;28;51163;-52
2022/06/07 13:04:52;;;;;;;;;24.00;22.50;;;;;-146.59;100.00;59519.28;4961693;28;51242;-53
2022/06/07 13:07:55;;;;;;;;;19.00;18.00;;;;;-146.59;100.00;59519.28;4950964;28;51473;-52
2022/06/07 13:10:55;;;;;;;;;26.00;22.75;;;;;-146.59;100.00;59519.28;4965065;28;51271;-52
2022/06/07 13:13:45;;;;;;;;;27.25;21.25;;;;;-146.59;100.00;59519.28;4979315;28;51117;-52
2022/06/07 13:16:42;;;;;;;;;23.00;18.50;;;;;-146.59;100.00;59519.28;4979802;28;51068;-51
2022/06/07 13:19:28;;;;;;;;;26.75;21.00;;;;;-146.59;100.00;59519.28;4966847;28;51483;-53
2022/06/07 13:22:16;;;;;;;;;22.00;20.75;;;;;-146.59;100.00;59519.28;4980911;28;51275;-54